createdAt,value
2022-11-03T07:17:05.683Z,1616
2022-11-03T07:17:54.188Z,1664
2022-11-03T07:18:54.089Z,1672
2022-11-03T07:19:54.516Z,1688
2022-11-03T07:20:53.282Z,1708
2022-11-03T07:21:53.797Z,1720
2022-11-03T07:22:53.718Z,1760
2022-11-03T07:23:54.630Z,1792
2022-11-03T07:24:53.825Z,1816
2022-11-03T07:25:53.728Z,1836
2022-11-03T07:26:53.321Z,1856
2022-11-03T07:27:53.186Z,1872
2022-11-03T07:28:53.272Z,1896
2022-11-03T07:29:53.140Z,1844
2022-11-03T07:30:53.323Z,1832
2022-11-03T07:31:53.135Z,1864
2022-11-03T07:32:53.825Z,1896
2022-11-03T07:33:54.032Z,1908
2022-11-03T07:34:53.439Z,1936
2022-11-03T07:36:22.070Z,1992
2022-11-03T07:37:00.596Z,2040
2022-11-03T07:37:53.203Z,2068
2022-11-03T07:38:53.253Z,2128
2022-11-03T07:39:53.637Z,2160
2022-11-03T07:40:53.264Z,2176
2022-11-03T07:41:53.252Z,2136
2022-11-03T07:42:53.270Z,2140
2022-11-03T07:43:53.255Z,2232
2022-11-03T07:44:53.947Z,2320
2022-11-03T07:45:53.886Z,2380
2022-11-03T07:46:53.594Z,2436
2022-11-03T07:47:53.271Z,2476
2022-11-03T07:48:53.370Z,2532
2022-11-03T07:49:54.187Z,2664
2022-11-03T07:50:53.313Z,2752
2022-11-03T07:51:53.412Z,2812
2022-11-03T07:52:53.802Z,2900
2022-11-03T07:53:53.779Z,2920
2022-11-03T07:54:53.461Z,3024
2022-11-03T07:55:53.571Z,2908
2022-11-03T07:56:53.937Z,2920
2022-11-03T07:57:53.683Z,2992
2022-11-03T07:58:53.363Z,2996
2022-11-03T07:59:53.374Z,3000
2022-11-03T08:00:53.376Z,3044
2022-11-03T08:01:54.502Z,3128
2022-11-03T08:02:53.864Z,3168
2022-11-03T08:03:53.525Z,3236
2022-11-03T08:04:54.279Z,3300
2022-11-03T08:05:54.322Z,3396
2022-11-03T08:06:53.702Z,3464
2022-11-03T08:07:53.736Z,3524
2022-11-03T08:08:53.760Z,3612
2022-11-03T08:09:54.010Z,3680
2022-11-03T08:10:54.060Z,3776
2022-11-03T08:11:54.250Z,3896
2022-11-03T08:12:53.975Z,3960
2022-11-03T08:13:53.898Z,4112
2022-11-03T08:14:54.436Z,4192
2022-11-03T08:15:53.776Z,4300
2022-11-03T08:16:54.459Z,4388
2022-11-03T08:18:00.811Z,4516
2022-11-03T08:18:54.164Z,4576
2022-11-03T08:19:54.257Z,4604
2022-11-03T08:20:53.644Z,4716
2022-11-03T08:21:54.800Z,4736
2022-11-03T08:23:32.496Z,4736
2022-11-03T08:23:54.584Z,4716
2022-11-03T08:24:54.080Z,4660
2022-11-03T08:25:55.421Z,4608
2022-11-03T08:26:54.033Z,4624
2022-11-03T08:27:53.997Z,4576
2022-11-03T08:28:54.039Z,4556
2022-11-03T08:29:54.024Z,4544
2022-11-03T08:30:53.982Z,4584
2022-11-03T08:31:54.340Z,4512
2022-11-03T08:32:54.267Z,4452
2022-11-03T08:33:53.760Z,4444
2022-11-03T08:34:54.057Z,4520
2022-11-03T08:35:53.793Z,4460
2022-11-03T08:36:54.339Z,4404
2022-11-03T08:37:54.706Z,4360
2022-11-03T08:38:54.070Z,4348
2022-11-03T08:39:54.153Z,4324
2022-11-03T17:21:54.947Z,0
2022-11-03T17:22:43.549Z,0
2022-11-03T17:23:43.081Z,0
2022-11-03T17:24:43.297Z,0
2022-11-03T17:25:43.229Z,0
2022-11-03T17:26:48.992Z,0
2022-11-03T17:27:42.643Z,0
2022-11-03T17:28:42.821Z,0
2022-11-03T17:29:42.501Z,0
2022-11-03T17:30:43.474Z,0
2022-11-03T17:31:43.129Z,0
2022-11-03T17:32:42.626Z,0
2022-11-03T17:33:43.243Z,0
2022-11-03T17:34:42.692Z,0
2022-11-03T17:35:46.568Z,0
2022-11-03T17:36:43.296Z,0
2022-11-03T17:37:42.600Z,0
2022-11-03T17:38:43.483Z,0
2022-11-03T17:39:43.208Z,0
2022-11-03T17:40:43.062Z,0
2022-11-03T17:41:42.738Z,0
2022-11-03T17:42:42.796Z,0
2022-11-03T17:43:42.941Z,0
2022-11-03T17:44:43.149Z,0
2022-11-03T17:45:43.340Z,0
2022-11-03T17:46:43.843Z,0
2022-11-03T17:47:42.796Z,0
2022-11-03T17:48:42.779Z,0
2022-11-03T17:49:42.800Z,0
2022-11-03T17:50:42.720Z,0
2022-11-03T17:51:42.783Z,0
2022-11-03T17:52:42.769Z,0
2022-11-03T17:53:43.123Z,0
2022-11-03T17:54:43.723Z,0
2022-11-03T17:55:42.848Z,0
2022-11-03T17:56:42.806Z,0
2022-11-03T17:57:43.184Z,0
